航空気象通報

ウインドサーファーのための航空気象通報による風予報です。

7/16-7/18の航空気象通報

2017年07月16日 23時09分45秒 | TAF
羽田空港
TAF AMD RJTT 161209Z 1612/1718 20006KT 9999 FEW015 BKN030
BECMG 1613/1615 34006KT
BECMG 1622/1700 10006KT
BECMG 1703/1706 18012KT
BECMG 1712/1715 12006KT
日本時間16日21-22時:200度から6ノットの風
22-24時:風が変化
17日00-07時:340度から6ノットの風
07-09時:風が変化
09-12時:100度から6ノットの風
12-15時:風が変化
15-21時:180度から12ノットの風
21時-18日03時:120度から6ノットの風


静岡空港
TAF RJNS 161107Z 1612/1718 26010KT 9999 FEW015 BKN030
日本時間16日21時-18日03時:260度から10ノットの風


福岡空港
TAF RJFF 161105Z 1612/1718 31006KT 9999 FEW030
BECMG 1612/1614 15005KT
BECMG 1700/1703 30009KT
TEMPO 1703/1706 TS FEW030 BKN040 FEW040CB
BECMG 1712/1715 15007KT
日本時間16日21時:310度から6ノットの風
21-23時:風が変化
23時-17日09時:150度から5ノットの風
09-12時:風が変化
12-21時:300度から9ノットの風
21-24時:風が変化
18日00-03時:150度から7ノットの風


那覇空港
TAF ROAH 161105Z 1612/1718 16006KT 9999 FEW020
TEMPO 1703/1706 SHRA FEW015 SCT020 FEW020CB
日本時間16日21時-18日03時:160度から6ノットの風

但し、17日12-15時の間:ときどき

石垣空港
TAF ROIG 161111Z 1612/1718 15007KT 9999 FEW015 SCT030
BECMG 1706/1709 10007KT
日本時間16日21時-17日15時:150度から7ノットの風
15-18時:風が変化
18時-18日03時:100度から7ノットの風


マウイのカフルイ空港
PHOG 161137Z 1612/1712 04009KT P6SM VCSH SCT030 BKN050
FM162000 04018G25KT P6SM FEW030 SCT050
FM170600 04010KT P6SM FEW030 SCT050 AMD LTD TO VIS AND WIND TIL 161600
ハワイ時間16日02-10時:040度から9ノットの風

10-20時:040度から18ノット、突風25ノット
20時-17日02時:040度から10ノットの風


サイパン空港
TAF PGSN 161131Z 1612/1712 10012KT P6SM VCSH SCT020 BKN100
マリアナ時間16日22時-17日22時:100度から12ノットの風
ジャンル:
お天気
コメント   この記事についてブログを書く
この記事をはてなブックマークに追加
« 7/15-7/17の航空気象通報 | トップ | 7/17-7/19の航空気象通報 »
最近の画像もっと見る

コメントを投稿

ブログ作成者から承認されるまでコメントは反映されません。

コメント利用規約に同意の上コメント投稿を行ってください。

数字4桁を入力し、投稿ボタンを押してください。

あわせて読む

トラックバック

この記事のトラックバック  Ping-URL
ブログ作成者から承認されるまでトラックバックは反映されません。
  • 30日以上前の記事に対するトラックバックは受け取らないよう設定されております。
  • 送信元の記事内容が半角英数のみのトラックバックは受け取らないよう設定されております。
  • このブログへのリンクがない記事からのトラックバックは受け取らないよう設定されております。
  • ※ブログ管理者のみ、編集画面で設定の変更が可能です。